sensor_id;sensor_type;location;lat;lon;timestamp;temperature;humidity
23540;DHT22;11947;50.810;4.394;2024-03-06T00:00:54;7.80;99.90
23540;DHT22;11947;50.810;4.394;2024-03-06T00:03:20;7.70;99.90
23540;DHT22;11947;50.810;4.394;2024-03-06T00:05:45;7.70;99.90
23540;DHT22;11947;50.810;4.394;2024-03-06T00:08:12;7.70;99.90
23540;DHT22;11947;50.810;4.394;2024-03-06T00:10:38;7.60;99.90
23540;DHT22;11947;50.810;4.394;2024-03-06T00:13:04;7.60;99.90
23540;DHT22;11947;50.810;4.394;2024-03-06T00:15:30;7.50;99.90
23540;DHT22;11947;50.810;4.394;2024-03-06T00:17:55;7.50;99.90
23540;DHT22;11947;50.810;4.394;2024-03-06T00:20:21;7.40;99.90
23540;DHT22;11947;50.810;4.394;2024-03-06T00:22:47;7.40;99.90
23540;DHT22;11947;50.810;4.394;2024-03-06T00:25:13;7.40;99.90
23540;DHT22;11947;50.810;4.394;2024-03-06T00:27:38;7.30;99.90
23540;DHT22;11947;50.810;4.394;2024-03-06T00:30:05;7.40;99.90
23540;DHT22;11947;50.810;4.394;2024-03-06T00:32:30;7.30;99.90
23540;DHT22;11947;50.810;4.394;2024-03-06T00:34:56;7.20;99.90
23540;DHT22;11947;50.810;4.394;2024-03-06T00:37:21;7.20;99.90
23540;DHT22;11947;50.810;4.394;2024-03-06T00:39:47;7.20;99.90
23540;DHT22;11947;50.810;4.394;2024-03-06T00:42:13;7.20;99.90
23540;DHT22;11947;50.810;4.394;2024-03-06T00:44:39;7.10;99.90
23540;DHT22;11947;50.810;4.394;2024-03-06T00:47:05;7.10;99.90
23540;DHT22;11947;50.810;4.394;2024-03-06T00:49:30;7.10;99.90
23540;DHT22;11947;50.810;4.394;2024-03-06T00:51:56;7.10;99.90
23540;DHT22;11947;50.810;4.394;2024-03-06T00:54:22;7.10;99.90
23540;DHT22;11947;50.810;4.394;2024-03-06T00:56:47;7.00;99.90
23540;DHT22;11947;50.810;4.394;2024-03-06T00:59:13;6.90;99.90
23540;DHT22;11947;50.810;4.394;2024-03-06T01:01:39;6.90;99.90
23540;DHT22;11947;50.810;4.394;2024-03-06T01:04:04;6.90;99.90
23540;DHT22;11947;50.810;4.394;2024-03-06T01:06:30;6.90;99.90
23540;DHT22;11947;50.810;4.394;2024-03-06T01:08:56;6.80;99.90
23540;DHT22;11947;50.810;4.394;2024-03-06T01:11:24;6.60;99.90
23540;DHT22;11947;50.810;4.394;2024-03-06T01:13:49;6.70;99.90
23540;DHT22;11947;50.810;4.394;2024-03-06T01:16:15;6.60;99.90
23540;DHT22;11947;50.810;4.394;2024-03-06T01:18:41;6.60;99.90
23540;DHT22;11947;50.810;4.394;2024-03-06T01:21:12;6.50;99.90
23540;DHT22;11947;50.810;4.394;2024-03-06T01:23:38;6.50;99.90
23540;DHT22;11947;50.810;4.394;2024-03-06T01:26:04;6.40;99.90
23540;DHT22;11947;50.810;4.394;2024-03-06T01:28:30;6.20;99.90
23540;DHT22;11947;50.810;4.394;2024-03-06T01:30:55;6.30;99.90
23540;DHT22;11947;50.810;4.394;2024-03-06T01:33:21;6.30;99.90
23540;DHT22;11947;50.810;4.394;2024-03-06T01:35:47;6.20;99.90
23540;DHT22;11947;50.810;4.394;2024-03-06T01:38:13;6.30;99.90
23540;DHT22;11947;50.810;4.394;2024-03-06T01:40:44;6.20;99.90
23540;DHT22;11947;50.810;4.394;2024-03-06T01:43:24;6.10;99.90
23540;DHT22;11947;50.810;4.394;2024-03-06T01:45:51;6.10;99.90
23540;DHT22;11947;50.810;4.394;2024-03-06T01:48:24;6.10;99.90
23540;DHT22;11947;50.810;4.394;2024-03-06T01:50:53;6.10;99.90
23540;DHT22;11947;50.810;4.394;2024-03-06T01:53:21;6.10;99.90
23540;DHT22;11947;50.810;4.394;2024-03-06T01:55:49;6.10;99.90
23540;DHT22;11947;50.810;4.394;2024-03-06T01:58:17;6.00;99.90
23540;DHT22;11947;50.810;4.394;2024-03-06T02:00:46;5.80;99.90
23540;DHT22;11947;50.810;4.394;2024-03-06T02:03:12;5.80;99.90
23540;DHT22;11947;50.810;4.394;2024-03-06T02:05:45;5.80;99.90
23540;DHT22;11947;50.810;4.394;2024-03-06T02:08:10;5.80;99.90
23540;DHT22;11947;50.810;4.394;2024-03-06T02:10:36;5.80;99.90
23540;DHT22;11947;50.810;4.394;2024-03-06T02:13:02;5.70;99.90
23540;DHT22;11947;50.810;4.394;2024-03-06T02:15:29;5.70;99.90
23540;DHT22;11947;50.810;4.394;2024-03-06T02:17:54;5.70;99.90
23540;DHT22;11947;50.810;4.394;2024-03-06T02:20:24;5.70;99.90
23540;DHT22;11947;50.810;4.394;2024-03-06T02:22:50;5.60;99.90
23540;DHT22;11947;50.810;4.394;2024-03-06T02:25:19;5.60;99.90
23540;DHT22;11947;50.810;4.394;2024-03-06T02:27:48;5.60;99.90
23540;DHT22;11947;50.810;4.394;2024-03-06T02:30:23;5.50;99.90
23540;DHT22;11947;50.810;4.394;2024-03-06T02:32:49;5.50;99.90
23540;DHT22;11947;50.810;4.394;2024-03-06T02:35:15;5.40;99.90
23540;DHT22;11947;50.810;4.394;2024-03-06T02:37:42;5.50;99.90
23540;DHT22;11947;50.810;4.394;2024-03-06T02:40:09;5.40;99.90
23540;DHT22;11947;50.810;4.394;2024-03-06T02:42:41;5.30;99.90
23540;DHT22;11947;50.810;4.394;2024-03-06T02:45:07;5.30;99.90
23540;DHT22;11947;50.810;4.394;2024-03-06T02:47:36;5.30;99.90
23540;DHT22;11947;50.810;4.394;2024-03-06T02:50:01;5.20;99.90
23540;DHT22;11947;50.810;4.394;2024-03-06T02:52:27;5.30;99.90
23540;DHT22;11947;50.810;4.394;2024-03-06T02:54:53;5.20;99.90
23540;DHT22;11947;50.810;4.394;2024-03-06T02:57:19;5.10;99.90
23540;DHT22;11947;50.810;4.394;2024-03-06T02:59:45;5.10;99.90
23540;DHT22;11947;50.810;4.394;2024-03-06T03:02:15;5.20;99.90
23540;DHT22;11947;50.810;4.394;2024-03-06T03:04:41;5.10;99.90
23540;DHT22;11947;50.810;4.394;2024-03-06T03:07:15;5.20;99.90
23540;DHT22;11947;50.810;4.394;2024-03-06T03:09:45;5.20;99.90
23540;DHT22;11947;50.810;4.394;2024-03-06T03:12:13;5.20;99.90
23540;DHT22;11947;50.810;4.394;2024-03-06T03:14:42;5.20;99.90
23540;DHT22;11947;50.810;4.394;2024-03-06T03:17:08;5.10;99.90
23540;DHT22;11947;50.810;4.394;2024-03-06T03:19:34;5.10;99.90
23540;DHT22;11947;50.810;4.394;2024-03-06T03:22:03;5.20;99.90
23540;DHT22;11947;50.810;4.394;2024-03-06T03:24:32;5.10;99.90
23540;DHT22;11947;50.810;4.394;2024-03-06T03:26:58;5.10;99.90
23540;DHT22;11947;50.810;4.394;2024-03-06T03:29:27;5.00;99.90
23540;DHT22;11947;50.810;4.394;2024-03-06T03:31:56;5.00;99.90
23540;DHT22;11947;50.810;4.394;2024-03-06T03:34:25;5.00;99.90
23540;DHT22;11947;50.810;4.394;2024-03-06T03:36:54;5.00;99.90
23540;DHT22;11947;50.810;4.394;2024-03-06T03:39:20;5.00;99.90
23540;DHT22;11947;50.810;4.394;2024-03-06T03:41:50;5.00;99.90
23540;DHT22;11947;50.810;4.394;2024-03-06T03:44:18;4.90;99.90
23540;DHT22;11947;50.810;4.394;2024-03-06T03:46:47;5.00;99.90
23540;DHT22;11947;50.810;4.394;2024-03-06T03:49:13;5.10;99.90
23540;DHT22;11947;50.810;4.394;2024-03-06T03:51:39;5.00;99.90
23540;DHT22;11947;50.810;4.394;2024-03-06T03:54:06;5.00;99.90
23540;DHT22;11947;50.810;4.394;2024-03-06T03:56:35;5.00;99.90
23540;DHT22;11947;50.810;4.394;2024-03-06T03:59:01;5.00;99.90
23540;DHT22;11947;50.810;4.394;2024-03-06T04:01:30;5.10;99.90
23540;DHT22;11947;50.810;4.394;2024-03-06T04:03:56;4.90;99.90
23540;DHT22;11947;50.810;4.394;2024-03-06T04:06:21;4.90;99.90
23540;DHT22;11947;50.810;4.394;2024-03-06T04:08:47;4.80;99.90
23540;DHT22;11947;50.810;4.394;2024-03-06T04:11:14;4.90;99.90
23540;DHT22;11947;50.810;4.394;2024-03-06T04:13:39;5.00;99.90
23540;DHT22;11947;50.810;4.394;2024-03-06T04:16:05;5.00;99.90
23540;DHT22;11947;50.810;4.394;2024-03-06T04:18:32;4.90;99.90
23540;DHT22;11947;50.810;4.394;2024-03-06T04:21:07;5.00;99.90
23540;DHT22;11947;50.810;4.394;2024-03-06T04:23:33;5.00;99.90
23540;DHT22;11947;50.810;4.394;2024-03-06T04:25:59;5.10;99.90
23540;DHT22;11947;50.810;4.394;2024-03-06T04:28:25;5.00;99.90
23540;DHT22;11947;50.810;4.394;2024-03-06T04:30:51;5.00;99.90
23540;DHT22;11947;50.810;4.394;2024-03-06T04:33:17;4.80;99.90
23540;DHT22;11947;50.810;4.394;2024-03-06T04:35:42;4.90;99.90
23540;DHT22;11947;50.810;4.394;2024-03-06T04:38:08;4.90;99.90
23540;DHT22;11947;50.810;4.394;2024-03-06T04:40:34;4.80;99.90
23540;DHT22;11947;50.810;4.394;2024-03-06T04:43:01;4.80;99.90
23540;DHT22;11947;50.810;4.394;2024-03-06T04:45:27;4.80;99.90
23540;DHT22;11947;50.810;4.394;2024-03-06T04:47:54;4.80;99.90
23540;DHT22;11947;50.810;4.394;2024-03-06T04:50:19;4.80;99.90
23540;DHT22;11947;50.810;4.394;2024-03-06T04:52:45;4.70;99.90
23540;DHT22;11947;50.810;4.394;2024-03-06T04:55:11;4.80;99.90
23540;DHT22;11947;50.810;4.394;2024-03-06T04:57:38;4.80;99.90
23540;DHT22;11947;50.810;4.394;2024-03-06T05:00:05;4.80;99.90
23540;DHT22;11947;50.810;4.394;2024-03-06T05:02:34;4.70;99.90
23540;DHT22;11947;50.810;4.394;2024-03-06T05:05:01;4.60;99.90
23540;DHT22;11947;50.810;4.394;2024-03-06T05:07:31;4.60;99.90
23540;DHT22;11947;50.810;4.394;2024-03-06T05:10:00;4.70;99.90
23540;DHT22;11947;50.810;4.394;2024-03-06T05:12:27;4.80;99.90
23540;DHT22;11947;50.810;4.394;2024-03-06T05:14:53;4.80;99.90
23540;DHT22;11947;50.810;4.394;2024-03-06T05:17:19;5.00;99.90
23540;DHT22;11947;50.810;4.394;2024-03-06T05:19:49;4.80;99.90
23540;DHT22;11947;50.810;4.394;2024-03-06T05:22:15;4.70;99.90
23540;DHT22;11947;50.810;4.394;2024-03-06T05:24:41;4.70;99.90
23540;DHT22;11947;50.810;4.394;2024-03-06T05:27:08;4.60;99.90
23540;DHT22;11947;50.810;4.394;2024-03-06T05:29:33;4.50;99.90
23540;DHT22;11947;50.810;4.394;2024-03-06T05:31:59;4.60;99.90
23540;DHT22;11947;50.810;4.394;2024-03-06T05:34:25;4.50;99.90
23540;DHT22;11947;50.810;4.394;2024-03-06T05:36:51;4.40;99.90
23540;DHT22;11947;50.810;4.394;2024-03-06T05:39:16;4.40;99.90
23540;DHT22;11947;50.810;4.394;2024-03-06T05:41:43;4.40;99.90
23540;DHT22;11947;50.810;4.394;2024-03-06T05:44:09;4.40;99.90
23540;DHT22;11947;50.810;4.394;2024-03-06T05:46:35;4.50;99.90
23540;DHT22;11947;50.810;4.394;2024-03-06T05:49:02;4.40;99.90
23540;DHT22;11947;50.810;4.394;2024-03-06T05:51:27;4.30;99.90
23540;DHT22;11947;50.810;4.394;2024-03-06T05:53:53;4.30;99.90
23540;DHT22;11947;50.810;4.394;2024-03-06T05:56:19;4.40;99.90
23540;DHT22;11947;50.810;4.394;2024-03-06T05:58:45;4.40;99.90
23540;DHT22;11947;50.810;4.394;2024-03-06T06:01:13;4.30;99.90
23540;DHT22;11947;50.810;4.394;2024-03-06T06:03:41;4.20;99.90
23540;DHT22;11947;50.810;4.394;2024-03-06T06:06:07;4.10;99.90
23540;DHT22;11947;50.810;4.394;2024-03-06T06:08:34;4.10;99.90
23540;DHT22;11947;50.810;4.394;2024-03-06T06:11:01;4.20;99.90
23540;DHT22;11947;50.810;4.394;2024-03-06T06:13:28;4.30;99.90
23540;DHT22;11947;50.810;4.394;2024-03-06T06:15:54;4.30;99.90
23540;DHT22;11947;50.810;4.394;2024-03-06T06:18:20;4.20;99.90
23540;DHT22;11947;50.810;4.394;2024-03-06T06:20:46;4.20;99.90
23540;DHT22;11947;50.810;4.394;2024-03-06T06:23:12;4.20;99.90
23540;DHT22;11947;50.810;4.394;2024-03-06T06:25:37;4.20;99.90
23540;DHT22;11947;50.810;4.394;2024-03-06T06:28:03;4.20;99.90
23540;DHT22;11947;50.810;4.394;2024-03-06T06:30:29;4.20;99.90
23540;DHT22;11947;50.810;4.394;2024-03-06T06:32:55;4.20;99.90
23540;DHT22;11947;50.810;4.394;2024-03-06T06:35:21;4.20;99.90
23540;DHT22;11947;50.810;4.394;2024-03-06T06:37:47;4.30;99.90
23540;DHT22;11947;50.810;4.394;2024-03-06T06:40:13;4.30;99.90
23540;DHT22;11947;50.810;4.394;2024-03-06T06:42:48;4.20;99.90
23540;DHT22;11947;50.810;4.394;2024-03-06T06:45:17;4.20;99.90
23540;DHT22;11947;50.810;4.394;2024-03-06T06:47:44;4.10;99.90
23540;DHT22;11947;50.810;4.394;2024-03-06T06:50:09;4.10;99.90
23540;DHT22;11947;50.810;4.394;2024-03-06T06:52:40;4.20;99.90
23540;DHT22;11947;50.810;4.394;2024-03-06T06:55:06;4.20;99.90
23540;DHT22;11947;50.810;4.394;2024-03-06T06:57:32;4.20;99.90
23540;DHT22;11947;50.810;4.394;2024-03-06T06:59:59;4.20;99.90
23540;DHT22;11947;50.810;4.394;2024-03-06T07:02:24;4.20;99.90
23540;DHT22;11947;50.810;4.394;2024-03-06T07:04:51;4.30;99.90
23540;DHT22;11947;50.810;4.394;2024-03-06T07:07:17;4.50;99.90
23540;DHT22;11947;50.810;4.394;2024-03-06T07:09:43;4.50;99.90
23540;DHT22;11947;50.810;4.394;2024-03-06T07:12:09;4.70;99.90
23540;DHT22;11947;50.810;4.394;2024-03-06T07:14:35;4.90;99.90
23540;DHT22;11947;50.810;4.394;2024-03-06T07:17:01;4.80;99.90
23540;DHT22;11947;50.810;4.394;2024-03-06T07:19:26;4.80;99.90
23540;DHT22;11947;50.810;4.394;2024-03-06T07:21:52;4.80;99.90
23540;DHT22;11947;50.810;4.394;2024-03-06T07:24:18;4.80;99.90
23540;DHT22;11947;50.810;4.394;2024-03-06T07:26:44;4.90;99.90
23540;DHT22;11947;50.810;4.394;2024-03-06T07:29:10;5.00;99.90
23540;DHT22;11947;50.810;4.394;2024-03-06T07:31:41;5.10;99.90
23540;DHT22;11947;50.810;4.394;2024-03-06T07:34:10;5.10;99.90
23540;DHT22;11947;50.810;4.394;2024-03-06T07:36:36;5.10;99.90
23540;DHT22;11947;50.810;4.394;2024-03-06T07:39:02;5.30;99.90
23540;DHT22;11947;50.810;4.394;2024-03-06T07:41:28;5.40;99.90
23540;DHT22;11947;50.810;4.394;2024-03-06T07:43:54;5.50;99.90
23540;DHT22;11947;50.810;4.394;2024-03-06T07:46:20;5.60;99.90
23540;DHT22;11947;50.810;4.394;2024-03-06T07:48:45;5.80;99.90
23540;DHT22;11947;50.810;4.394;2024-03-06T07:51:11;5.90;99.90
23540;DHT22;11947;50.810;4.394;2024-03-06T07:53:37;6.00;99.90
23540;DHT22;11947;50.810;4.394;2024-03-06T07:56:03;6.20;99.90
23540;DHT22;11947;50.810;4.394;2024-03-06T07:58:29;6.20;99.90
23540;DHT22;11947;50.810;4.394;2024-03-06T08:00:55;6.30;99.90
23540;DHT22;11947;50.810;4.394;2024-03-06T08:03:22;6.40;99.90
23540;DHT22;11947;50.810;4.394;2024-03-06T08:05:52;6.70;99.90
23540;DHT22;11947;50.810;4.394;2024-03-06T08:08:21;7.00;99.90
23540;DHT22;11947;50.810;4.394;2024-03-06T08:10:47;7.20;99.90
23540;DHT22;11947;50.810;4.394;2024-03-06T08:13:13;7.30;99.90
23540;DHT22;11947;50.810;4.394;2024-03-06T08:15:39;7.40;99.90
23540;DHT22;11947;50.810;4.394;2024-03-06T08:18:06;7.60;99.90
23540;DHT22;11947;50.810;4.394;2024-03-06T08:20:32;7.80;99.90
23540;DHT22;11947;50.810;4.394;2024-03-06T08:23:01;8.00;99.90
23540;DHT22;11947;50.810;4.394;2024-03-06T08:25:27;8.20;99.90
23540;DHT22;11947;50.810;4.394;2024-03-06T08:27:52;8.20;99.90
23540;DHT22;11947;50.810;4.394;2024-03-06T08:30:18;8.20;99.90
23540;DHT22;11947;50.810;4.394;2024-03-06T08:32:44;8.40;99.90
23540;DHT22;11947;50.810;4.394;2024-03-06T08:35:13;8.50;99.90
23540;DHT22;11947;50.810;4.394;2024-03-06T08:37:42;8.50;99.90
23540;DHT22;11947;50.810;4.394;2024-03-06T08:40:09;8.50;99.90
23540;DHT22;11947;50.810;4.394;2024-03-06T08:42:43;8.70;99.90
23540;DHT22;11947;50.810;4.394;2024-03-06T08:45:10;8.70;99.90
23540;DHT22;11947;50.810;4.394;2024-03-06T08:47:36;8.80;99.90
23540;DHT22;11947;50.810;4.394;2024-03-06T08:50:03;9.00;99.90
23540;DHT22;11947;50.810;4.394;2024-03-06T08:52:29;9.30;99.90
23540;DHT22;11947;50.810;4.394;2024-03-06T08:54:56;9.20;99.90
23540;DHT22;11947;50.810;4.394;2024-03-06T08:57:22;9.20;99.90
23540;DHT22;11947;50.810;4.394;2024-03-06T08:59:49;9.40;99.90
23540;DHT22;11947;50.810;4.394;2024-03-06T09:02:19;9.30;99.90
23540;DHT22;11947;50.810;4.394;2024-03-06T09:04:47;9.40;99.90
23540;DHT22;11947;50.810;4.394;2024-03-06T09:07:13;9.50;99.90
23540;DHT22;11947;50.810;4.394;2024-03-06T09:09:39;9.70;99.90
23540;DHT22;11947;50.810;4.394;2024-03-06T09:12:09;10.10;99.90
23540;DHT22;11947;50.810;4.394;2024-03-06T09:14:40;10.20;99.90
23540;DHT22;11947;50.810;4.394;2024-03-06T09:17:06;10.50;99.90
23540;DHT22;11947;50.810;4.394;2024-03-06T09:19:35;10.30;99.90
23540;DHT22;11947;50.810;4.394;2024-03-06T09:22:00;10.60;99.90
23540;DHT22;11947;50.810;4.394;2024-03-06T09:24:26;10.80;99.90
23540;DHT22;11947;50.810;4.394;2024-03-06T09:26:53;11.10;99.90
23540;DHT22;11947;50.810;4.394;2024-03-06T09:29:20;11.00;99.90
23540;DHT22;11947;50.810;4.394;2024-03-06T09:31:46;11.00;99.90
23540;DHT22;11947;50.810;4.394;2024-03-06T09:34:13;11.00;99.90
23540;DHT22;11947;50.810;4.394;2024-03-06T09:36:47;11.40;99.90
23540;DHT22;11947;50.810;4.394;2024-03-06T09:39:16;11.70;99.90
23540;DHT22;11947;50.810;4.394;2024-03-06T09:41:54;12.00;99.90
23540;DHT22;11947;50.810;4.394;2024-03-06T09:44:22;11.80;99.90
23540;DHT22;11947;50.810;4.394;2024-03-06T09:46:49;11.30;99.90
23540;DHT22;11947;50.810;4.394;2024-03-06T09:49:19;11.00;99.90
23540;DHT22;11947;50.810;4.394;2024-03-06T09:51:46;10.80;99.90
23540;DHT22;11947;50.810;4.394;2024-03-06T09:54:14;10.80;99.90
23540;DHT22;11947;50.810;4.394;2024-03-06T09:56:46;11.00;99.90
23540;DHT22;11947;50.810;4.394;2024-03-06T09:59:13;11.30;99.90
23540;DHT22;11947;50.810;4.394;2024-03-06T10:04:37;11.50;99.90
23540;DHT22;11947;50.810;4.394;2024-03-06T10:07:03;11.70;99.90
23540;DHT22;11947;50.810;4.394;2024-03-06T10:09:30;11.70;99.90
23540;DHT22;11947;50.810;4.394;2024-03-06T10:11:58;11.90;99.90
23540;DHT22;11947;50.810;4.394;2024-03-06T10:14:24;12.50;99.90
23540;DHT22;11947;50.810;4.394;2024-03-06T10:16:57;12.80;99.90
23540;DHT22;11947;50.810;4.394;2024-03-06T10:19:24;12.60;99.90
23540;DHT22;11947;50.810;4.394;2024-03-06T10:21:51;12.70;99.90
23540;DHT22;11947;50.810;4.394;2024-03-06T10:24:27;12.60;99.90
23540;DHT22;11947;50.810;4.394;2024-03-06T10:26:57;12.70;99.90
23540;DHT22;11947;50.810;4.394;2024-03-06T10:29:24;12.70;99.90
23540;DHT22;11947;50.810;4.394;2024-03-06T10:31:55;12.60;99.90
23540;DHT22;11947;50.810;4.394;2024-03-06T10:34:21;13.00;99.90
23540;DHT22;11947;50.810;4.394;2024-03-06T10:39:20;13.60;99.90
23540;DHT22;11947;50.810;4.394;2024-03-06T10:41:46;13.80;99.90
23540;DHT22;11947;50.810;4.394;2024-03-06T10:44:17;13.50;99.90
23540;DHT22;11947;50.810;4.394;2024-03-06T10:46:45;13.20;99.90
23540;DHT22;11947;50.810;4.394;2024-03-06T10:49:12;12.90;99.90
23540;DHT22;11947;50.810;4.394;2024-03-06T10:51:40;13.00;99.90
23540;DHT22;11947;50.810;4.394;2024-03-06T10:54:09;12.80;99.90
23540;DHT22;11947;50.810;4.394;2024-03-06T10:56:38;12.60;99.90
23540;DHT22;11947;50.810;4.394;2024-03-06T10:59:04;12.40;99.90
23540;DHT22;11947;50.810;4.394;2024-03-06T11:01:32;12.10;99.90
23540;DHT22;11947;50.810;4.394;2024-03-06T11:04:02;12.00;99.90
23540;DHT22;11947;50.810;4.394;2024-03-06T11:06:28;12.00;99.90
23540;DHT22;11947;50.810;4.394;2024-03-06T11:08:54;12.20;99.90
23540;DHT22;11947;50.810;4.394;2024-03-06T11:11:21;12.40;99.90
23540;DHT22;11947;50.810;4.394;2024-03-06T11:13:47;12.40;99.90
23540;DHT22;11947;50.810;4.394;2024-03-06T11:16:13;12.90;99.90
23540;DHT22;11947;50.810;4.394;2024-03-06T11:23:31;13.10;99.90
23540;DHT22;11947;50.810;4.394;2024-03-06T11:26:04;12.90;99.90
23540;DHT22;11947;50.810;4.394;2024-03-06T11:28:31;12.60;99.90
23540;DHT22;11947;50.810;4.394;2024-03-06T11:33:39;12.80;99.90
23540;DHT22;11947;50.810;4.394;2024-03-06T11:38:50;12.90;99.90
23540;DHT22;11947;50.810;4.394;2024-03-06T11:41:25;13.10;99.90
23540;DHT22;11947;50.810;4.394;2024-03-06T11:43:52;13.00;99.90
23540;DHT22;11947;50.810;4.394;2024-03-06T11:46:22;13.20;99.90
23540;DHT22;11947;50.810;4.394;2024-03-06T11:48:53;13.30;99.90
23540;DHT22;11947;50.810;4.394;2024-03-06T11:51:19;13.30;99.90
23540;DHT22;11947;50.810;4.394;2024-03-06T11:53:48;13.10;99.90
23540;DHT22;11947;50.810;4.394;2024-03-06T11:56:14;12.90;99.90
23540;DHT22;11947;50.810;4.394;2024-03-06T11:58:40;13.20;99.90
23540;DHT22;11947;50.810;4.394;2024-03-06T12:01:06;13.30;99.90
23540;DHT22;11947;50.810;4.394;2024-03-06T12:03:31;13.60;99.90
23540;DHT22;11947;50.810;4.394;2024-03-06T12:05:57;13.60;99.90
23540;DHT22;11947;50.810;4.394;2024-03-06T12:08:24;13.50;99.90
23540;DHT22;11947;50.810;4.394;2024-03-06T12:10:50;13.30;99.90
23540;DHT22;11947;50.810;4.394;2024-03-06T12:13:16;13.20;99.90
23540;DHT22;11947;50.810;4.394;2024-03-06T12:15:45;12.90;99.90
23540;DHT22;11947;50.810;4.394;2024-03-06T12:18:11;12.90;99.90
23540;DHT22;11947;50.810;4.394;2024-03-06T12:20:42;13.20;99.90
23540;DHT22;11947;50.810;4.394;2024-03-06T12:23:19;13.00;99.90
23540;DHT22;11947;50.810;4.394;2024-03-06T12:25:46;13.10;99.90
23540;DHT22;11947;50.810;4.394;2024-03-06T12:28:12;13.10;99.90
23540;DHT22;11947;50.810;4.394;2024-03-06T12:30:42;13.00;99.90
23540;DHT22;11947;50.810;4.394;2024-03-06T12:33:08;13.00;99.90
23540;DHT22;11947;50.810;4.394;2024-03-06T12:35:35;12.80;99.90
23540;DHT22;11947;50.810;4.394;2024-03-06T12:38:11;12.60;99.90
23540;DHT22;11947;50.810;4.394;2024-03-06T12:40:37;12.50;99.90
23540;DHT22;11947;50.810;4.394;2024-03-06T12:43:03;12.50;99.90
23540;DHT22;11947;50.810;4.394;2024-03-06T12:45:29;12.30;99.90
23540;DHT22;11947;50.810;4.394;2024-03-06T12:47:55;12.40;99.90
23540;DHT22;11947;50.810;4.394;2024-03-06T12:50:21;12.40;99.90
23540;DHT22;11947;50.810;4.394;2024-03-06T12:52:46;12.50;99.90
23540;DHT22;11947;50.810;4.394;2024-03-06T12:55:12;12.50;99.90
23540;DHT22;11947;50.810;4.394;2024-03-06T12:57:40;14.00;99.90
23540;DHT22;11947;50.810;4.394;2024-03-06T13:00:06;17.90;99.90
23540;DHT22;11947;50.810;4.394;2024-03-06T13:02:42;18.30;99.90
23540;DHT22;11947;50.810;4.394;2024-03-06T13:05:07;17.70;99.90
23540;DHT22;11947;50.810;4.394;2024-03-06T13:07:33;17.50;99.90
23540;DHT22;11947;50.810;4.394;2024-03-06T13:09:59;17.30;99.90
23540;DHT22;11947;50.810;4.394;2024-03-06T13:12:24;16.70;99.90
23540;DHT22;11947;50.810;4.394;2024-03-06T13:14:50;16.50;99.90
23540;DHT22;11947;50.810;4.394;2024-03-06T13:17:16;15.50;99.90
23540;DHT22;11947;50.810;4.394;2024-03-06T13:19:41;15.30;99.90
23540;DHT22;11947;50.810;4.394;2024-03-06T13:22:07;15.00;99.90
23540;DHT22;11947;50.810;4.394;2024-03-06T13:24:35;14.90;99.90
23540;DHT22;11947;50.810;4.394;2024-03-06T13:27:00;14.70;99.90
23540;DHT22;11947;50.810;4.394;2024-03-06T13:29:26;14.70;99.90
23540;DHT22;11947;50.810;4.394;2024-03-06T13:31:52;14.70;99.90
23540;DHT22;11947;50.810;4.394;2024-03-06T13:34:17;14.50;99.90
23540;DHT22;11947;50.810;4.394;2024-03-06T13:36:43;14.80;99.90
23540;DHT22;11947;50.810;4.394;2024-03-06T13:39:09;15.00;99.90
23540;DHT22;11947;50.810;4.394;2024-03-06T13:41:34;15.40;99.90
23540;DHT22;11947;50.810;4.394;2024-03-06T13:44:00;15.90;99.90
23540;DHT22;11947;50.810;4.394;2024-03-06T13:46:26;15.70;99.90
23540;DHT22;11947;50.810;4.394;2024-03-06T13:48:51;16.10;99.90
23540;DHT22;11947;50.810;4.394;2024-03-06T13:51:17;16.30;99.90
23540;DHT22;11947;50.810;4.394;2024-03-06T13:53:42;16.20;99.90
23540;DHT22;11947;50.810;4.394;2024-03-06T13:56:08;15.80;99.90
23540;DHT22;11947;50.810;4.394;2024-03-06T13:58:34;15.60;99.90
23540;DHT22;11947;50.810;4.394;2024-03-06T14:00:59;14.90;99.90
23540;DHT22;11947;50.810;4.394;2024-03-06T14:03:25;14.50;99.90
23540;DHT22;11947;50.810;4.394;2024-03-06T14:05:51;14.50;99.90
23540;DHT22;11947;50.810;4.394;2024-03-06T14:08:17;14.10;99.90
23540;DHT22;11947;50.810;4.394;2024-03-06T14:10:43;13.60;99.90
23540;DHT22;11947;50.810;4.394;2024-03-06T14:13:08;13.30;99.90
23540;DHT22;11947;50.810;4.394;2024-03-06T14:15:37;13.20;99.90
23540;DHT22;11947;50.810;4.394;2024-03-06T14:18:03;13.10;99.90
23540;DHT22;11947;50.810;4.394;2024-03-06T14:20:29;13.10;99.90
23540;DHT22;11947;50.810;4.394;2024-03-06T14:22:55;13.00;99.90
23540;DHT22;11947;50.810;4.394;2024-03-06T14:25:20;13.20;99.90
23540;DHT22;11947;50.810;4.394;2024-03-06T14:27:46;13.10;99.90
23540;DHT22;11947;50.810;4.394;2024-03-06T14:30:13;12.90;99.90
23540;DHT22;11947;50.810;4.394;2024-03-06T14:32:40;13.10;99.90
23540;DHT22;11947;50.810;4.394;2024-03-06T14:35:06;13.20;99.90
23540;DHT22;11947;50.810;4.394;2024-03-06T14:37:32;13.30;99.90
23540;DHT22;11947;50.810;4.394;2024-03-06T14:39:58;13.50;99.90
23540;DHT22;11947;50.810;4.394;2024-03-06T14:42:23;13.50;99.90
23540;DHT22;11947;50.810;4.394;2024-03-06T14:44:49;13.80;99.90
23540;DHT22;11947;50.810;4.394;2024-03-06T14:47:15;14.40;99.90
23540;DHT22;11947;50.810;4.394;2024-03-06T14:49:42;14.90;99.90
23540;DHT22;11947;50.810;4.394;2024-03-06T14:52:13;16.10;99.90
23540;DHT22;11947;50.810;4.394;2024-03-06T14:54:39;16.70;99.90
23540;DHT22;11947;50.810;4.394;2024-03-06T14:57:06;17.20;99.90
23540;DHT22;11947;50.810;4.394;2024-03-06T14:59:32;18.10;99.90
23540;DHT22;11947;50.810;4.394;2024-03-06T15:01:58;19.10;99.90
23540;DHT22;11947;50.810;4.394;2024-03-06T15:04:23;20.30;99.90
23540;DHT22;11947;50.810;4.394;2024-03-06T15:06:49;20.80;99.90
23540;DHT22;11947;50.810;4.394;2024-03-06T15:09:15;21.70;99.90
23540;DHT22;11947;50.810;4.394;2024-03-06T15:11:47;21.90;99.90
23540;DHT22;11947;50.810;4.394;2024-03-06T15:14:13;22.40;99.90
23540;DHT22;11947;50.810;4.394;2024-03-06T15:16:39;21.50;99.90
23540;DHT22;11947;50.810;4.394;2024-03-06T15:19:05;22.00;99.90
23540;DHT22;11947;50.810;4.394;2024-03-06T15:21:31;22.50;99.90
23540;DHT22;11947;50.810;4.394;2024-03-06T15:23:57;21.50;99.90
23540;DHT22;11947;50.810;4.394;2024-03-06T15:26:23;20.80;99.90
23540;DHT22;11947;50.810;4.394;2024-03-06T15:28:48;20.00;99.90
23540;DHT22;11947;50.810;4.394;2024-03-06T15:31:14;18.20;99.90
23540;DHT22;11947;50.810;4.394;2024-03-06T15:33:40;17.60;99.90
23540;DHT22;11947;50.810;4.394;2024-03-06T15:36:06;17.10;99.90
23540;DHT22;11947;50.810;4.394;2024-03-06T15:38:31;16.40;99.90
23540;DHT22;11947;50.810;4.394;2024-03-06T15:40:57;15.50;99.90
23540;DHT22;11947;50.810;4.394;2024-03-06T15:43:23;15.40;99.90
23540;DHT22;11947;50.810;4.394;2024-03-06T15:45:48;15.40;99.90
23540;DHT22;11947;50.810;4.394;2024-03-06T15:48:14;15.20;99.90
23540;DHT22;11947;50.810;4.394;2024-03-06T15:50:41;15.00;99.90
23540;DHT22;11947;50.810;4.394;2024-03-06T15:53:07;14.70;99.90